Weather Underground® Station Historical Data


Station Historical Data For Bruceton, TN. (K3JAE's Weather Station - KTNBRUCE2)
 
Daily Summary for:  February 20, 2017 Units:  English    Metric   Both
« Previous Day
Next Day »
Daily Weekly Monthly Yearly Custom
  Current: High: Low: Average:
Temperature: 73.2 °F 73.2 °F 47.8 °F 56.2 °F
Dew Point: 54.5 °F 54.5 °F 44.8 °F 49.7 °F
Humidity: 52% 91% 52% 81%
Wind Speed: 5.8mph 10.4mph 0.0mph 2mph
Wind Gust: 5.8mph 10.4mph - -
WindEast - - SE
Pressure: 30.05 in 30.16 in 30.05 in -
Precipitation: 0.00 in      
Historical Graphs
 
 
Tabular Data for:  February 20, 2017
Time Temperature Dew Point Pressure Wind Wind Speed Wind Gust Humidity Rainfall Rate (Hourly) solar Conditions
00:03 51.7 °F 48.9 °F 30.11 in Calm     90% 0.00 in 0.0 W/m2 CLR
00:08 51.5 °F 48.7 °F 30.12 in Calm     90% 0.00 in 0.0 W/m2 CLR
00:13 51.4 °F 48.6 °F 30.11 in Calm     90% 0.00 in 0.0 W/m2 CLR
00:18 51.2 °F 48.4 °F 30.11 in Calm     90% 0.00 in 0.0 W/m2 CLR
00:23 51.1 °F 48.3 °F 30.12 in Calm     90% 0.00 in 0.0 W/m2 CLR
00:28 51.0 °F 48.2 °F 30.12 in Calm     90% 0.00 in 0.0 W/m2 CLR
00:33 50.9 °F 48.1 °F 30.12 in East 1.2 mph 1.2 mph 90% 0.00 in 0.0 W/m2 CLR
00:38 51.0 °F 48.2 °F 30.12 in Calm     90% 0.00 in 0.0 W/m2 CLR
00:43 50.9 °F 48.1 °F 30.12 in Calm     90% 0.00 in 0.0 W/m2 CLR
00:48 50.9 °F 48.1 °F 30.12 in Calm     90% 0.00 in 0.0 W/m2 CLR
00:53 50.8 °F 48.0 °F 30.12 in Calm     90% 0.00 in 0.0 W/m2 CLR
00:58 50.7 °F 47.9 °F 30.12 in Calm     90% 0.00 in 0.0 W/m2 CLR
01:03 50.7 °F 47.9 °F 30.12 in Calm     90% 0.00 in 0.0 W/m2 CLR
01:08 50.6 °F 47.8 °F 30.11 in Calm     90% 0.00 in 0.0 W/m2 CLR
01:13 50.5 °F 47.7 °F 30.11 in Calm     90% 0.00 in 0.0 W/m2 CLR
01:18 50.4 °F 47.6 °F 30.11 in Calm     90% 0.00 in 0.0 W/m2 CLR
01:23 50.3 °F 47.5 °F 30.11 in Calm     90% 0.00 in 0.0 W/m2 CLR
01:28 50.1 °F 47.3 °F 30.11 in Calm     90% 0.00 in 0.0 W/m2 CLR
01:33 50.0 °F 47.2 °F 30.11 in Calm     90% 0.00 in 0.0 W/m2 CLR
01:38 50.0 °F 47.2 °F 30.11 in Calm     90% 0.00 in 0.0 W/m2 CLR
01:43 49.9 °F 47.1 °F 30.11 in Calm     90% 0.00 in 0.0 W/m2 CLR
01:48 49.9 °F 46.8 °F 30.10 in Calm     89% 0.00 in 0.0 W/m2 CLR
01:53 49.9 °F 46.8 °F 30.10 in Calm     89% 0.00 in 0.0 W/m2 CLR
01:58 49.9 °F 46.8 °F 30.10 in Calm     89% 0.00 in 0.0 W/m2 CLR
02:03 49.9 °F 46.8 °F 30.10 in Calm     89% 0.00 in 0.0 W/m2 CLR
02:08 50.0 °F 46.9 °F 30.10 in Calm     89% 0.00 in 0.0 W/m2 CLR
02:13 50.0 °F 46.9 °F 30.10 in Calm     89% 0.00 in 0.0 W/m2 CLR
02:18 50.0 °F 46.9 °F 30.10 in Calm     89% 0.00 in 0.0 W/m2 CLR
02:23 50.1 °F 47.0 °F 30.10 in Calm     89% 0.00 in 0.0 W/m2 CLR
02:28 50.2 °F 47.1 °F 30.10 in Calm     89% 0.00 in 0.0 W/m2 CLR
02:33 50.2 °F 47.4 °F 30.10 in Calm     90% 0.00 in 0.0 W/m2 CLR
02:38 50.2 °F 47.4 °F 30.10 in Calm     90% 0.00 in 0.0 W/m2 CLR
02:43 50.2 °F 47.4 °F 30.11 in Calm     90% 0.00 in 0.0 W/m2 CLR
02:44 50.2 °F 47.4 °F 30.11 in Calm     90% 0.00 in 0.0 W/m2 CLR
02:49 50.3 °F 47.2 °F 30.11 in Calm     89% 0.00 in 0.0 W/m2 CLR
02:54 50.5 °F 47.7 °F 30.11 in Calm     90% 0.00 in 0.0 W/m2 CLR
02:59 50.4 °F 47.6 °F 30.11 in Calm     90% 0.00 in 0.0 W/m2 CLR
03:04 50.1 °F 47.3 °F 30.11 in Calm     90% 0.00 in 0.0 W/m2 CLR
03:09 49.8 °F 47.0 °F 30.11 in Calm     90% 0.00 in 0.0 W/m2 CLR
03:14 49.5 °F 46.7 °F 30.11 in Calm     90% 0.00 in 0.0 W/m2 CLR
03:19 49.4 °F 46.6 °F 30.11 in Calm     90% 0.00 in 0.0 W/m2 CLR
03:24 49.4 °F 46.6 °F 30.12 in Calm     90% 0.00 in 0.0 W/m2 CLR
03:29 49.5 °F 46.7 °F 30.12 in Calm     90% 0.00 in 0.0 W/m2 CLR
03:34 49.6 °F 46.8 °F 30.12 in Calm     90% 0.00 in 0.0 W/m2 CLR
03:39 49.6 °F 46.8 °F 30.12 in Calm     90% 0.00 in 0.0 W/m2 CLR
03:44 49.5 °F 46.7 °F 30.12 in Calm     90% 0.00 in 0.0 W/m2 CLR
03:49 49.3 °F 46.5 °F 30.13 in Calm     90% 0.00 in 0.0 W/m2 CLR
03:54 48.9 °F 46.1 °F 30.13 in Calm     90% 0.00 in 0.0 W/m2 CLR
03:59 48.6 °F 45.8 °F 30.13 in Calm     90% 0.00 in 0.0 W/m2 CLR
04:04 48.4 °F 45.6 °F 30.13 in Calm     90% 0.00 in 0.0 W/m2 CLR
04:09 48.3 °F 45.5 °F 30.13 in Calm     90% 0.00 in 0.0 W/m2 CLR
04:14 48.1 °F 45.3 °F 30.13 in East 2.3 mph 2.3 mph 90% 0.00 in 0.0 W/m2 CLR
04:19 48.0 °F 45.2 °F 30.12 in East 1.2 mph 1.2 mph 90% 0.00 in 0.0 W/m2 CLR
04:24 47.9 °F 45.1 °F 30.12 in East 2.3 mph 2.3 mph 90% 0.00 in 0.0 W/m2 CLR
04:29 47.8 °F 45.0 °F 30.12 in East 2.3 mph 2.3 mph 90% 0.00 in 0.0 W/m2 CLR
04:34 47.9 °F 44.8 °F 30.12 in Calm     89% 0.00 in 0.0 W/m2 CLR
04:39 48.3 °F 44.9 °F 30.13 in Calm     88% 0.00 in 0.0 W/m2 CLR
04:44 48.8 °F 45.4 °F 30.13 in East 2.3 mph 2.3 mph 88% 0.00 in 0.0 W/m2 CLR
04:49 49.1 °F 45.7 °F 30.12 in East 1.0 mph 1.0 mph 88% 0.00 in 0.0 W/m2 CLR
04:54 49.4 °F 46.0 °F 30.12 in East 2.3 mph 2.3 mph 88% 0.00 in 0.0 W/m2 CLR
04:59 49.5 °F 46.4 °F 30.12 in East 2.3 mph 2.3 mph 89% 0.00 in 0.0 W/m2 CLR
05:04 49.4 °F 46.6 °F 30.12 in East 2.3 mph 2.3 mph 90% 0.00 in 0.0 W/m2 CLR
05:09 49.4 °F 46.3 °F 30.12 in East 2.3 mph 2.3 mph 89% 0.00 in 0.0 W/m2 CLR
05:14 49.4 °F 46.3 °F 30.12 in East 2.3 mph 2.3 mph 89% 0.00 in 0.0 W/m2 CLR
05:19 49.3 °F 46.5 °F 30.12 in East 1.2 mph 1.2 mph 90% 0.00 in 0.0 W/m2 CLR
05:24 49.2 °F 46.4 °F 30.11 in East 2.3 mph 2.3 mph 90% 0.00 in 0.0 W/m2 CLR
05:29 49.2 °F 46.4 °F 30.12 in Calm     90% 0.00 in 0.0 W/m2 CLR
05:34 49.3 °F 46.2 °F 30.12 in East 2.0 mph 2.0 mph 89% 0.00 in 0.0 W/m2 CLR
05:39 49.3 °F 46.2 °F 30.12 in East 2.3 mph 2.3 mph 89% 0.00 in 0.0 W/m2 CLR
05:44 49.3 °F 46.2 °F 30.11 in East 1.2 mph 1.2 mph 89% 0.00 in 0.0 W/m2 CLR
05:49 49.4 °F 46.6 °F 30.11 in East 1.2 mph 1.2 mph 90% 0.00 in 0.0 W/m2 CLR
05:54 49.4 °F 46.6 °F 30.11 in East 1.2 mph 1.2 mph 90% 0.00 in 0.0 W/m2 CLR
05:59 49.3 °F 46.5 °F 30.11 in Calm     90% 0.00 in 0.0 W/m2 CLR
06:04 49.3 °F 46.5 °F 30.12 in Calm     90% 0.00 in 0.0 W/m2 CLR
06:09 49.3 °F 46.5 °F 30.12 in Calm     90% 0.00 in 0.0 W/m2 CLR
06:14 49.3 °F 46.5 °F 30.13 in East 1.2 mph 1.2 mph 90% 0.00 in 0.0 W/m2 CLR
06:19 49.4 °F 46.6 °F 30.12 in East 1.2 mph 1.2 mph 90% 0.00 in 0.0 W/m2 CLR
06:24 49.5 °F 46.7 °F 30.12 in East 2.3 mph 2.3 mph 90% 0.00 in 0.0 W/m2 CLR
06:29 49.5 °F 46.7 °F 30.13 in Calm     90% 0.00 in 0.0 W/m2 CLR
06:34 49.5 °F 46.7 °F 30.12 in Calm     90% 0.00 in 0.0 W/m2 CLR
06:39 49.5 °F 46.7 °F 30.12 in Calm     90% 0.00 in 0.0 W/m2 CLR
06:44 49.6 °F 46.8 °F 30.12 in Calm     90% 0.00 in 7.0 W/m2 CLR
06:49 49.6 °F 46.8 °F 30.13 in Calm     90% 0.00 in 11.0 W/m2 CLR
06:54 49.6 °F 46.8 °F 30.13 in Calm     90% 0.00 in 14.0 W/m2 CLR
06:59 49.7 °F 46.9 °F 30.13 in East 1.2 mph   90% 0.00 in 21.0 W/m2 CLR
07:04 49.8 °F 47.0 °F 30.13 in East 1.2 mph   90% 0.00 in 28.0 W/m2 CLR
07:09 49.9 °F 47.1 °F 30.13 in East 1.2 mph 1.2 mph 90% 0.00 in 37.0 W/m2 CLR
07:14 50.0 °F 47.2 °F 30.13 in Calm     90% 0.00 in 44.0 W/m2 CLR
07:19 50.1 °F 47.3 °F 30.13 in East 1.2 mph 1.2 mph 90% 0.00 in 49.0 W/m2 CLR
07:24 50.3 °F 47.5 °F 30.14 in Calm     90% 0.00 in 58.0 W/m2 CLR
07:29 50.5 °F 47.7 °F 30.14 in Calm     90% 0.00 in 69.0 W/m2 CLR
07:34 50.7 °F 47.9 °F 30.14 in Calm     90% 0.00 in 77.0 W/m2 CLR
07:39 50.9 °F 48.1 °F 30.14 in Calm     90% 0.00 in 84.0 W/m2 CLR
07:44 51.2 °F 48.4 °F 30.14 in East 1.2 mph 1.2 mph 90% 0.00 in 84.0 W/m2 CLR
07:49 51.4 °F 48.9 °F 30.14 in East 1.2 mph 1.2 mph 91% 0.00 in 79.0 W/m2 CLR
07:54 51.6 °F 48.8 °F 30.14 in East 2.3 mph 2.3 mph 90% 0.00 in 81.0 W/m2 CLR
07:59 51.8 °F 49.0 °F 30.14 in East 2.3 mph 2.3 mph 90% 0.00 in 104.0 W/m2 CLR
08:04 52.1 °F 49.6 °F 30.14 in Calm   0.3 mph 91% 0.00 in 121.0 W/m2 CLR
08:09 52.5 °F 49.9 °F 30.14 in East 3.0 mph 3.0 mph 91% 0.00 in 120.0 W/m2 CLR
08:14 53.0 °F 50.1 °F 30.14 in East 2.0 mph 2.0 mph 90% 0.00 in 142.0 W/m2 CLR
08:19 53.4 °F 50.5 °F 30.14 in East 1.2 mph 1.2 mph 90% 0.00 in 158.0 W/m2 CLR
08:24 53.8 °F 50.6 °F 30.15 in ESE 2.3 mph 2.3 mph 89% 0.00 in 130.0 W/m2 CLR
08:29 54.1 °F 50.9 °F 30.14 in SE 4.0 mph 4.0 mph 89% 0.00 in 130.0 W/m2 CLR
08:34 54.4 °F 51.2 °F 30.15 in ESE 3.5 mph 3.5 mph 89% 0.00 in 137.0 W/m2 CLR
08:39 54.7 °F 51.2 °F 30.15 in SE 2.3 mph 2.3 mph 88% 0.00 in 130.0 W/m2 CLR
08:44 54.9 °F 51.4 °F 30.15 in ESE 3.5 mph 3.5 mph 88% 0.00 in 128.0 W/m2 CLR
08:49 55.2 °F 51.4 °F 30.15 in ESE 3.5 mph 3.5 mph 87% 0.00 in 137.0 W/m2 CLR
08:54 55.4 °F 51.6 °F 30.14 in ESE 3.5 mph 3.5 mph 87% 0.00 in 163.0 W/m2 CLR
08:59 55.6 °F 51.5 °F 30.15 in ESE 3.5 mph 3.5 mph 86% 0.00 in 193.0 W/m2 CLR
09:04 56.0 °F 51.9 °F 30.15 in ESE 3.0 mph 3.0 mph 86% 0.00 in 221.0 W/m2 CLR
09:09 56.4 °F 51.9 °F 30.15 in ESE 3.5 mph 3.5 mph 85% 0.00 in 211.0 W/m2 CLR
09:14 56.7 °F 52.2 °F 30.15 in ESE 3.0 mph 3.0 mph 85% 0.00 in 218.0 W/m2 CLR
09:19 57.1 °F 52.3 °F 30.15 in ESE 3.5 mph 3.5 mph 84% 0.00 in 209.0 W/m2 CLR
09:24 57.5 °F 52.4 °F 30.15 in ESE 3.5 mph 3.5 mph 83% 0.00 in 232.0 W/m2 CLR
09:29 57.9 °F 52.4 °F 30.15 in ESE 3.5 mph 3.5 mph 82% 0.00 in 209.0 W/m2 CLR
09:34 58.3 °F 52.8 °F 30.15 in ESE 1.2 mph 1.2 mph 82% 0.00 in 258.0 W/m2 CLR
09:39 58.9 °F 53.1 °F 30.15 in ESE 2.3 mph 2.3 mph 81% 0.00 in 258.0 W/m2 CLR
09:44 59.5 °F 53.7 °F 30.15 in ESE 2.3 mph 2.3 mph 81% 0.00 in 276.0 W/m2 CLR
09:49 60.2 °F 53.7 °F 30.15 in ESE 2.3 mph 2.3 mph 79% 0.00 in 257.0 W/m2 CLR
09:54 60.8 °F 53.5 °F 30.15 in ESE 3.5 mph 3.5 mph 77% 0.00 in 255.0 W/m2 CLR
09:59 61.1 °F 53.8 °F 30.15 in SE 3.5 mph 3.5 mph 77% 0.00 in 237.0 W/m2 CLR
10:04 61.5 °F 53.5 °F 30.15 in SE 3.0 mph 3.0 mph 75% 0.00 in 241.0 W/m2 CLR
10:09 61.8 °F 53.8 °F 30.15 in SE 3.5 mph 3.5 mph 75% 0.00 in 229.0 W/m2 CLR
10:14 62.1 °F 53.7 °F 30.15 in SE 3.5 mph 3.5 mph 74% 0.00 in 258.0 W/m2 CLR
10:19 62.5 °F 53.7 °F 30.16 in South 4.6 mph 4.6 mph 73% 0.00 in 221.0 W/m2 CLR
10:20 62.5 °F 53.7 °F 30.15 in South 4.6 mph 4.6 mph 73% 0.00 in 221.0 W/m2 CLR
10:25 62.7 °F 53.9 °F 30.16 in South 2.3 mph 2.3 mph 73% 0.00 in 218.0 W/m2 CLR
10:30 62.8 °F 53.6 °F 30.16 in South 2.3 mph 2.7 mph 72% 0.00 in 232.0 W/m2 CLR
10:35 63.1 °F 53.9 °F 30.16 in South 3.5 mph   72% 0.00 in 267.0 W/m2 CLR
10:40 63.5 °F 53.9 °F 30.16 in South 3.5 mph 3.5 mph 71% 0.00 in 313.0 W/m2 CLR
10:45 63.9 °F 53.9 °F 30.16 in South 2.3 mph 2.3 mph 70% 0.00 in 341.0 W/m2 CLR
10:50 64.4 °F 54.0 °F 30.15 in SSE 3.5 mph 3.5 mph 69% 0.00 in 404.0 W/m2 CLR
10:55 64.7 °F 53.9 °F 30.15 in SSE 3.0 mph 3.0 mph 68% 0.00 in 387.0 W/m2 CLR
11:00 65.3 °F 54.1 °F 30.15 in SSE 3.5 mph 3.5 mph 67% 0.00 in 355.0 W/m2 CLR
11:05 65.7 °F 54.0 °F 30.15 in SE 2.3 mph 2.3 mph 66% 0.00 in 343.0 W/m2 CLR
11:10 66.1 °F 54.0 °F 30.14 in ESE 3.5 mph 3.5 mph 65% 0.00 in 302.0 W/m2 CLR
11:15 66.4 °F 54.3 °F 30.14 in ESE 3.5 mph 3.5 mph 65% 0.00 in 330.0 W/m2 CLR
11:20 66.6 °F 54.0 °F 30.14 in SSE 5.8 mph 5.8 mph 64% 0.00 in 330.0 W/m2 CLR
11:25 66.9 °F 53.9 °F 30.14 in ESE 3.5 mph 3.5 mph 63% 0.00 in 334.0 W/m2 CLR
11:30 67.2 °F 54.2 °F 30.14 in SSE 3.5 mph 3.5 mph 63% 0.00 in 364.0 W/m2 CLR
11:35 67.5 °F 53.6 °F 30.13 in SSW 6.9 mph 6.9 mph 61% 0.00 in 374.0 W/m2 CLR
11:40 67.8 °F 53.9 °F 30.13 in South 4.6 mph 4.6 mph 61% 0.00 in 432.0 W/m2 CLR
11:45 68.1 °F 54.1 °F 30.13 in SE 4.0 mph 4.0 mph 61% 0.00 in 468.0 W/m2 CLR
11:50 68.3 °F 53.9 °F 30.13 in South 3.5 mph 3.5 mph 60% 0.00 in 554.0 W/m2 CLR
11:55 68.9 °F 54.0 °F 30.12 in SSW 3.5 mph 3.5 mph 59% 0.00 in 478.0 W/m2 CLR
12:00 69.4 °F 54.0 °F 30.12 in SE 3.5 mph 3.5 mph 58% 0.00 in 461.0 W/m2 CLR
12:05 69.6 °F 54.2 °F 30.12 in SE 3.5 mph 3.5 mph 58% 0.00 in 341.0 W/m2 CLR
12:10 69.9 °F 54.0 °F 30.11 in SE 1.2 mph 1.2 mph 57% 0.00 in 329.0 W/m2 CLR
12:15 69.8 °F 53.4 °F 30.11 in WSW 7.0 mph 7.0 mph 56% 0.00 in 287.0 W/m2 CLR
12:20 69.7 °F 53.3 °F 30.11 in SSW 4.6 mph 4.6 mph 56% 0.00 in 345.0 W/m2 CLR
12:25 69.8 °F 53.4 °F 30.10 in SSE 6.9 mph 6.9 mph 56% 0.00 in 376.0 W/m2 CLR
12:30 70.1 °F 53.7 °F 30.10 in SSE 4.0 mph 4.0 mph 56% 0.00 in 473.0 W/m2 CLR
12:35 70.7 °F 54.2 °F 30.10 in South 4.6 mph 4.6 mph 56% 0.00 in 362.0 W/m2 CLR
12:40 70.8 °F 53.3 °F 30.09 in SSW 4.6 mph 4.6 mph 54% 0.00 in 371.0 W/m2 CLR
12:45 70.9 °F 53.9 °F 30.09 in South 10.4 mph 10.4 mph 55% 0.00 in 364.0 W/m2 CLR
12:50 70.9 °F 53.9 °F 30.09 in SE 6.9 mph 6.9 mph 55% 0.00 in 316.0 W/m2 CLR
12:55 71.0 °F 54.0 °F 30.09 in SSE 8.1 mph 8.1 mph 55% 0.00 in 318.0 W/m2 CLR
13:00 71.0 °F 54.0 °F 30.08 in SW 10.4 mph 10.4 mph 55% 0.00 in 322.0 W/m2 CLR
13:05 71.0 °F 54.0 °F 30.08 in ESE 3.5 mph 3.5 mph 55% 0.00 in 353.0 W/m2 CLR
13:10 71.3 °F 53.8 °F 30.07 in South 3.5 mph 3.5 mph 54% 0.00 in 338.0 W/m2 CLR
13:12 71.3 °F 53.8 °F 30.07 in South 6.0 mph 6.0 mph 54% 0.00 in 360.0 W/m2 CLR
13:17 71.2 °F 53.7 °F 30.07 in SW 5.8 mph 5.8 mph 54% 0.00 in 327.0 W/m2 CLR
13:22 71.2 °F 54.2 °F 30.07 in SW 1.2 mph   55% 0.00 in 294.0 W/m2 CLR
13:27 71.5 °F 54.0 °F 30.07 in South 5.0 mph 5.0 mph 54% 0.00 in 299.0 W/m2 CLR
13:32 71.7 °F 54.2 °F 30.07 in SSE 4.6 mph 4.6 mph 54% 0.00 in 288.0 W/m2 CLR
13:37 71.9 °F 53.8 °F 30.07 in SSE 2.3 mph 2.3 mph 53% 0.00 in 304.0 W/m2 CLR
13:42 71.9 °F 53.8 °F 30.06 in SSW 3.5 mph 3.5 mph 53% 0.00 in 394.0 W/m2 CLR
13:47 72.0 °F 53.9 °F 30.06 in SSW 5.8 mph 5.8 mph 53% 0.00 in 420.0 W/m2 CLR
13:52 72.1 °F 54.5 °F 30.06 in South 4.6 mph 4.6 mph 54% 0.00 in 543.0 W/m2 CLR
13:57 72.5 °F 53.9 °F 30.06 in East 4.6 mph 4.6 mph 52% 0.00 in 487.0 W/m2 CLR
14:02 73.0 °F 54.3 °F 30.06 in SE 3.5 mph 3.5 mph 52% 0.00 in 367.0 W/m2 CLR
14:07 73.2 °F 54.5 °F 30.05 in East 5.8 mph 5.8 mph 52% 0.00 in 257.0 W/m2 CLR
Bruceton, TN. NWS Weather Forecast
Compliments of:  Weather Underground - 4.25 mb

Interesting Weather Facts
? MOST 1 MINUTE RAIN FALL
Unionville, Maryland on 04 July 1956 recorded a 1-minute rainfall of 1.23 inches (31.2 mm).